sensor_id;sensor_type;location;lat;lon;timestamp;P1;durP1;ratioP1;P2;durP2;ratioP2
10805;SDS011;5455;53.224;6.000;2022-08-30T00:02:17;4.20;;;2.23;;
10805;SDS011;5455;53.224;6.000;2022-08-30T00:04:45;3.20;;;1.83;;
10805;SDS011;5455;53.224;6.000;2022-08-30T00:07:12;5.03;;;2.50;;
10805;SDS011;5455;53.224;6.000;2022-08-30T00:09:39;6.07;;;2.23;;
10805;SDS011;5455;53.224;6.000;2022-08-30T00:12:06;4.17;;;1.97;;
10805;SDS011;5455;53.224;6.000;2022-08-30T00:14:34;4.23;;;2.03;;
10805;SDS011;5455;53.224;6.000;2022-08-30T00:17:01;10.53;;;3.63;;
10805;SDS011;5455;53.224;6.000;2022-08-30T00:19:29;13.40;;;4.03;;
10805;SDS011;5455;53.224;6.000;2022-08-30T00:21:56;10.23;;;3.33;;
10805;SDS011;5455;53.224;6.000;2022-08-30T00:24:23;10.00;;;3.83;;
10805;SDS011;5455;53.224;6.000;2022-08-30T00:26:50;8.47;;;3.70;;
10805;SDS011;5455;53.224;6.000;2022-08-30T00:29:17;7.97;;;4.23;;
10805;SDS011;5455;53.224;6.000;2022-08-30T00:31:44;10.13;;;3.60;;
10805;SDS011;5455;53.224;6.000;2022-08-30T00:34:11;8.70;;;3.37;;
10805;SDS011;5455;53.224;6.000;2022-08-30T00:36:38;5.87;;;2.90;;
10805;SDS011;5455;53.224;6.000;2022-08-30T00:39:05;9.23;;;2.83;;
10805;SDS011;5455;53.224;6.000;2022-08-30T00:41:32;8.07;;;3.03;;
10805;SDS011;5455;53.224;6.000;2022-08-30T00:43:59;7.57;;;3.30;;
10805;SDS011;5455;53.224;6.000;2022-08-30T00:46:26;7.53;;;3.03;;
10805;SDS011;5455;53.224;6.000;2022-08-30T00:48:53;6.63;;;2.97;;
10805;SDS011;5455;53.224;6.000;2022-08-30T00:51:21;9.37;;;3.07;;
10805;SDS011;5455;53.224;6.000;2022-08-30T00:53:50;8.00;;;3.10;;
10805;SDS011;5455;53.224;6.000;2022-08-30T00:56:22;6.83;;;2.83;;
10805;SDS011;5455;53.224;6.000;2022-08-30T00:58:52;6.40;;;2.67;;
10805;SDS011;5455;53.224;6.000;2022-08-30T01:01:23;6.23;;;2.30;;
10805;SDS011;5455;53.224;6.000;2022-08-30T01:03:51;3.83;;;2.47;;
10805;SDS011;5455;53.224;6.000;2022-08-30T01:06:18;4.43;;;2.33;;
10805;SDS011;5455;53.224;6.000;2022-08-30T01:08:46;4.63;;;2.43;;
10805;SDS011;5455;53.224;6.000;2022-08-30T01:11:15;5.30;;;2.47;;
10805;SDS011;5455;53.224;6.000;2022-08-30T01:13:45;8.10;;;2.87;;
10805;SDS011;5455;53.224;6.000;2022-08-30T01:16:14;3.67;;;2.40;;
10805;SDS011;5455;53.224;6.000;2022-08-30T01:18:42;4.53;;;1.93;;
10805;SDS011;5455;53.224;6.000;2022-08-30T01:23:46;3.10;;;1.83;;
10805;SDS011;5455;53.224;6.000;2022-08-30T01:26:16;3.57;;;2.23;;
10805;SDS011;5455;53.224;6.000;2022-08-30T01:28:49;3.60;;;2.20;;
10805;SDS011;5455;53.224;6.000;2022-08-30T01:31:20;2.70;;;1.70;;
10805;SDS011;5455;53.224;6.000;2022-08-30T01:33:47;2.20;;;1.40;;
10805;SDS011;5455;53.224;6.000;2022-08-30T01:36:14;2.63;;;1.60;;
10805;SDS011;5455;53.224;6.000;2022-08-30T01:38:50;4.97;;;2.00;;
10805;SDS011;5455;53.224;6.000;2022-08-30T01:41:21;1.90;;;1.40;;
10805;SDS011;5455;53.224;6.000;2022-08-30T01:43:56;2.50;;;1.50;;
10805;SDS011;5455;53.224;6.000;2022-08-30T01:46:27;4.13;;;1.47;;
10805;SDS011;5455;53.224;6.000;2022-08-30T01:48:56;2.17;;;1.37;;
10805;SDS011;5455;53.224;6.000;2022-08-30T01:51:25;2.73;;;1.70;;
10805;SDS011;5455;53.224;6.000;2022-08-30T01:53:53;4.57;;;1.40;;
10805;SDS011;5455;53.224;6.000;2022-08-30T01:56:21;2.23;;;1.40;;
10805;SDS011;5455;53.224;6.000;2022-08-30T01:58:49;2.93;;;1.33;;
10805;SDS011;5455;53.224;6.000;2022-08-30T02:01:18;3.03;;;1.60;;
10805;SDS011;5455;53.224;6.000;2022-08-30T02:03:47;3.20;;;1.27;;
10805;SDS011;5455;53.224;6.000;2022-08-30T02:06:15;1.30;;;1.10;;
10805;SDS011;5455;53.224;6.000;2022-08-30T02:08:44;1.67;;;1.33;;
10805;SDS011;5455;53.224;6.000;2022-08-30T02:11:12;3.53;;;1.20;;
10805;SDS011;5455;53.224;6.000;2022-08-30T02:13:40;2.83;;;1.10;;
10805;SDS011;5455;53.224;6.000;2022-08-30T02:16:09;2.17;;;1.13;;
10805;SDS011;5455;53.224;6.000;2022-08-30T02:18:39;3.57;;;1.20;;
10805;SDS011;5455;53.224;6.000;2022-08-30T02:21:06;3.43;;;1.43;;
10805;SDS011;5455;53.224;6.000;2022-08-30T02:23:35;1.90;;;1.13;;
10805;SDS011;5455;53.224;6.000;2022-08-30T02:26:02;1.47;;;1.27;;
10805;SDS011;5455;53.224;6.000;2022-08-30T02:28:30;1.90;;;1.50;;
10805;SDS011;5455;53.224;6.000;2022-08-30T02:30:58;3.20;;;1.20;;
10805;SDS011;5455;53.224;6.000;2022-08-30T02:33:25;1.83;;;1.10;;
10805;SDS011;5455;53.224;6.000;2022-08-30T02:35:52;1.83;;;1.17;;
10805;SDS011;5455;53.224;6.000;2022-08-30T02:38:19;2.27;;;1.00;;
10805;SDS011;5455;53.224;6.000;2022-08-30T02:40:46;1.00;;;0.80;;
10805;SDS011;5455;53.224;6.000;2022-08-30T02:43:13;1.23;;;0.90;;
10805;SDS011;5455;53.224;6.000;2022-08-30T02:45:41;0.93;;;0.87;;
10805;SDS011;5455;53.224;6.000;2022-08-30T02:48:08;1.70;;;1.00;;
10805;SDS011;5455;53.224;6.000;2022-08-30T02:50:39;1.90;;;1.20;;
10805;SDS011;5455;53.224;6.000;2022-08-30T02:53:07;1.60;;;1.10;;
10805;SDS011;5455;53.224;6.000;2022-08-30T02:55:39;3.53;;;1.10;;
10805;SDS011;5455;53.224;6.000;2022-08-30T02:58:07;1.53;;;0.93;;
10805;SDS011;5455;53.224;6.000;2022-08-30T03:00:34;1.07;;;0.80;;
10805;SDS011;5455;53.224;6.000;2022-08-30T03:03:01;2.63;;;1.17;;
10805;SDS011;5455;53.224;6.000;2022-08-30T03:05:30;2.40;;;1.10;;
10805;SDS011;5455;53.224;6.000;2022-08-30T03:07:58;3.47;;;0.90;;
10805;SDS011;5455;53.224;6.000;2022-08-30T03:10:26;1.17;;;0.90;;
10805;SDS011;5455;53.224;6.000;2022-08-30T03:12:54;1.93;;;1.03;;
10805;SDS011;5455;53.224;6.000;2022-08-30T03:15:21;1.60;;;1.23;;
10805;SDS011;5455;53.224;6.000;2022-08-30T03:17:52;1.33;;;0.97;;
10805;SDS011;5455;53.224;6.000;2022-08-30T03:20:20;2.10;;;1.37;;
10805;SDS011;5455;53.224;6.000;2022-08-30T03:22:48;2.03;;;1.10;;
10805;SDS011;5455;53.224;6.000;2022-08-30T03:25:15;2.63;;;1.00;;
10805;SDS011;5455;53.224;6.000;2022-08-30T03:27:42;1.17;;;0.87;;
10805;SDS011;5455;53.224;6.000;2022-08-30T03:30:10;1.87;;;0.93;;
10805;SDS011;5455;53.224;6.000;2022-08-30T03:32:38;0.70;;;0.60;;
10805;SDS011;5455;53.224;6.000;2022-08-30T03:35:08;1.23;;;0.90;;
10805;SDS011;5455;53.224;6.000;2022-08-30T03:37:36;0.90;;;0.70;;
10805;SDS011;5455;53.224;6.000;2022-08-30T03:40:03;1.20;;;0.80;;
10805;SDS011;5455;53.224;6.000;2022-08-30T03:42:33;2.77;;;0.87;;
10805;SDS011;5455;53.224;6.000;2022-08-30T03:45:00;3.40;;;0.50;;
10805;SDS011;5455;53.224;6.000;2022-08-30T03:47:27;1.00;;;0.70;;
10805;SDS011;5455;53.224;6.000;2022-08-30T03:49:55;0.93;;;0.60;;
10805;SDS011;5455;53.224;6.000;2022-08-30T03:52:22;1.40;;;0.90;;
10805;SDS011;5455;53.224;6.000;2022-08-30T03:54:49;1.73;;;1.20;;
10805;SDS011;5455;53.224;6.000;2022-08-30T03:57:16;1.23;;;1.00;;
10805;SDS011;5455;53.224;6.000;2022-08-30T03:59:49;1.90;;;0.90;;
10805;SDS011;5455;53.224;6.000;2022-08-30T04:02:17;1.60;;;0.80;;
10805;SDS011;5455;53.224;6.000;2022-08-30T04:04:44;2.30;;;0.90;;
10805;SDS011;5455;53.224;6.000;2022-08-30T04:07:11;1.73;;;0.90;;
10805;SDS011;5455;53.224;6.000;2022-08-30T04:09:38;0.83;;;0.70;;
10805;SDS011;5455;53.224;6.000;2022-08-30T04:12:05;3.03;;;1.07;;
10805;SDS011;5455;53.224;6.000;2022-08-30T04:14:32;1.60;;;0.80;;
10805;SDS011;5455;53.224;6.000;2022-08-30T04:16:59;1.17;;;1.00;;
10805;SDS011;5455;53.224;6.000;2022-08-30T04:19:26;1.10;;;1.00;;
10805;SDS011;5455;53.224;6.000;2022-08-30T04:21:53;2.73;;;1.10;;
10805;SDS011;5455;53.224;6.000;2022-08-30T04:24:22;3.20;;;0.90;;
10805;SDS011;5455;53.224;6.000;2022-08-30T04:26:50;1.50;;;1.27;;
10805;SDS011;5455;53.224;6.000;2022-08-30T04:29:17;2.50;;;1.30;;
10805;SDS011;5455;53.224;6.000;2022-08-30T04:31:44;1.73;;;1.00;;
10805;SDS011;5455;53.224;6.000;2022-08-30T04:34:12;2.37;;;1.57;;
10805;SDS011;5455;53.224;6.000;2022-08-30T04:36:39;2.40;;;1.40;;
10805;SDS011;5455;53.224;6.000;2022-08-30T04:39:06;4.83;;;1.47;;
10805;SDS011;5455;53.224;6.000;2022-08-30T04:41:34;1.67;;;1.40;;
10805;SDS011;5455;53.224;6.000;2022-08-30T04:44:02;1.90;;;1.50;;
10805;SDS011;5455;53.224;6.000;2022-08-30T04:46:29;2.90;;;1.40;;
10805;SDS011;5455;53.224;6.000;2022-08-30T04:48:56;3.37;;;1.40;;
10805;SDS011;5455;53.224;6.000;2022-08-30T04:51:23;1.90;;;1.50;;
10805;SDS011;5455;53.224;6.000;2022-08-30T04:53:50;4.10;;;1.63;;
10805;SDS011;5455;53.224;6.000;2022-08-30T04:56:18;2.23;;;1.60;;
10805;SDS011;5455;53.224;6.000;2022-08-30T04:58:49;2.27;;;1.60;;
10805;SDS011;5455;53.224;6.000;2022-08-30T05:01:20;3.37;;;1.67;;
10805;SDS011;5455;53.224;6.000;2022-08-30T05:03:53;4.60;;;1.87;;
10805;SDS011;5455;53.224;6.000;2022-08-30T05:06:21;1.80;;;1.60;;
10805;SDS011;5455;53.224;6.000;2022-08-30T05:08:49;2.30;;;1.70;;
10805;SDS011;5455;53.224;6.000;2022-08-30T05:11:18;3.50;;;2.10;;
10805;SDS011;5455;53.224;6.000;2022-08-30T05:13:45;3.83;;;2.33;;
10805;SDS011;5455;53.224;6.000;2022-08-30T05:16:13;3.23;;;2.07;;
10805;SDS011;5455;53.224;6.000;2022-08-30T05:18:46;2.47;;;1.90;;
10805;SDS011;5455;53.224;6.000;2022-08-30T05:21:16;7.80;;;1.80;;
10805;SDS011;5455;53.224;6.000;2022-08-30T05:23:47;3.23;;;2.07;;
10805;SDS011;5455;53.224;6.000;2022-08-30T05:26:17;4.10;;;2.50;;
10805;SDS011;5455;53.224;6.000;2022-08-30T05:28:47;4.43;;;2.43;;
10805;SDS011;5455;53.224;6.000;2022-08-30T05:31:34;5.60;;;2.50;;
10805;SDS011;5455;53.224;6.000;2022-08-30T05:34:02;3.57;;;2.30;;
10805;SDS011;5455;53.224;6.000;2022-08-30T05:36:30;3.67;;;2.43;;
10805;SDS011;5455;53.224;6.000;2022-08-30T05:39:00;4.73;;;3.00;;
10805;SDS011;5455;53.224;6.000;2022-08-30T05:41:31;4.87;;;2.93;;
10805;SDS011;5455;53.224;6.000;2022-08-30T05:43:59;3.37;;;2.57;;
10805;SDS011;5455;53.224;6.000;2022-08-30T05:46:27;7.93;;;3.10;;
10805;SDS011;5455;53.224;6.000;2022-08-30T05:49:04;4.23;;;3.03;;
10805;SDS011;5455;53.224;6.000;2022-08-30T05:51:33;5.07;;;3.40;;
10805;SDS011;5455;53.224;6.000;2022-08-30T05:54:09;3.93;;;2.90;;
10805;SDS011;5455;53.224;6.000;2022-08-30T05:56:39;5.00;;;2.90;;
10805;SDS011;5455;53.224;6.000;2022-08-30T05:59:07;4.60;;;2.43;;
10805;SDS011;5455;53.224;6.000;2022-08-30T06:01:38;4.17;;;2.60;;
10805;SDS011;5455;53.224;6.000;2022-08-30T06:04:07;2.90;;;2.33;;
10805;SDS011;5455;53.224;6.000;2022-08-30T06:06:36;4.13;;;2.53;;
10805;SDS011;5455;53.224;6.000;2022-08-30T06:09:05;4.13;;;3.07;;
10805;SDS011;5455;53.224;6.000;2022-08-30T06:11:34;4.93;;;2.60;;
10805;SDS011;5455;53.224;6.000;2022-08-30T06:14:02;3.90;;;2.90;;
10805;SDS011;5455;53.224;6.000;2022-08-30T06:16:30;4.53;;;2.63;;
10805;SDS011;5455;53.224;6.000;2022-08-30T06:18:59;3.00;;;2.13;;
10805;SDS011;5455;53.224;6.000;2022-08-30T06:21:28;3.07;;;2.20;;
10805;SDS011;5455;53.224;6.000;2022-08-30T06:23:57;3.07;;;2.20;;
10805;SDS011;5455;53.224;6.000;2022-08-30T06:26:25;2.63;;;2.00;;
10805;SDS011;5455;53.224;6.000;2022-08-30T06:28:53;4.57;;;1.97;;
10805;SDS011;5455;53.224;6.000;2022-08-30T06:31:22;2.43;;;1.83;;
10805;SDS011;5455;53.224;6.000;2022-08-30T06:33:50;3.77;;;2.37;;
10805;SDS011;5455;53.224;6.000;2022-08-30T06:36:19;4.33;;;2.10;;
10805;SDS011;5455;53.224;6.000;2022-08-30T06:38:48;4.23;;;2.33;;
10805;SDS011;5455;53.224;6.000;2022-08-30T06:41:18;3.40;;;2.03;;
10805;SDS011;5455;53.224;6.000;2022-08-30T06:43:47;2.30;;;2.03;;
10805;SDS011;5455;53.224;6.000;2022-08-30T06:46:16;2.93;;;1.93;;
10805;SDS011;5455;53.224;6.000;2022-08-30T06:48:45;2.67;;;2.00;;
10805;SDS011;5455;53.224;6.000;2022-08-30T06:51:14;4.90;;;2.20;;
10805;SDS011;5455;53.224;6.000;2022-08-30T06:53:45;6.90;;;2.50;;
10805;SDS011;5455;53.224;6.000;2022-08-30T06:56:14;3.77;;;2.10;;
10805;SDS011;5455;53.224;6.000;2022-08-30T06:58:44;3.67;;;1.90;;
10805;SDS011;5455;53.224;6.000;2022-08-30T07:01:16;3.80;;;1.70;;
10805;SDS011;5455;53.224;6.000;2022-08-30T07:03:45;2.80;;;1.77;;
10805;SDS011;5455;53.224;6.000;2022-08-30T07:06:12;4.10;;;1.73;;
10805;SDS011;5455;53.224;6.000;2022-08-30T07:08:39;4.00;;;1.40;;
10805;SDS011;5455;53.224;6.000;2022-08-30T07:11:07;4.53;;;1.60;;
10805;SDS011;5455;53.224;6.000;2022-08-30T07:13:34;2.50;;;1.37;;
10805;SDS011;5455;53.224;6.000;2022-08-30T07:16:12;2.40;;;1.20;;
10805;SDS011;5455;53.224;6.000;2022-08-30T07:18:39;1.80;;;1.10;;
10805;SDS011;5455;53.224;6.000;2022-08-30T07:21:40;2.97;;;1.40;;
10805;SDS011;5455;53.224;6.000;2022-08-30T07:24:09;2.20;;;1.07;;
10805;SDS011;5455;53.224;6.000;2022-08-30T07:26:39;2.87;;;1.00;;
10805;SDS011;5455;53.224;6.000;2022-08-30T07:29:08;2.93;;;1.10;;
10805;SDS011;5455;53.224;6.000;2022-08-30T07:31:35;1.70;;;1.00;;
10805;SDS011;5455;53.224;6.000;2022-08-30T07:34:03;4.73;;;1.10;;
10805;SDS011;5455;53.224;6.000;2022-08-30T07:36:32;2.27;;;0.90;;
10805;SDS011;5455;53.224;6.000;2022-08-30T07:39:00;1.47;;;1.03;;
10805;SDS011;5455;53.224;6.000;2022-08-30T07:41:28;2.43;;;1.10;;
10805;SDS011;5455;53.224;6.000;2022-08-30T07:43:57;3.63;;;0.90;;
10805;SDS011;5455;53.224;6.000;2022-08-30T07:46:24;2.57;;;1.00;;
10805;SDS011;5455;53.224;6.000;2022-08-30T07:48:51;2.20;;;0.80;;
10805;SDS011;5455;53.224;6.000;2022-08-30T07:51:23;1.37;;;0.70;;
10805;SDS011;5455;53.224;6.000;2022-08-30T07:53:52;3.30;;;1.10;;
10805;SDS011;5455;53.224;6.000;2022-08-30T07:56:20;2.67;;;0.97;;
10805;SDS011;5455;53.224;6.000;2022-08-30T07:58:47;2.60;;;0.90;;
10805;SDS011;5455;53.224;6.000;2022-08-30T08:01:15;2.27;;;0.70;;
10805;SDS011;5455;53.224;6.000;2022-08-30T08:03:43;1.30;;;0.63;;
10805;SDS011;5455;53.224;6.000;2022-08-30T08:06:12;2.40;;;0.90;;
10805;SDS011;5455;53.224;6.000;2022-08-30T08:08:41;0.70;;;0.60;;
10805;SDS011;5455;53.224;6.000;2022-08-30T08:11:14;1.73;;;0.83;;
10805;SDS011;5455;53.224;6.000;2022-08-30T08:13:43;1.93;;;0.90;;
10805;SDS011;5455;53.224;6.000;2022-08-30T08:16:19;1.00;;;0.90;;
10805;SDS011;5455;53.224;6.000;2022-08-30T08:18:48;1.47;;;0.80;;
10805;SDS011;5455;53.224;6.000;2022-08-30T08:21:15;2.47;;;0.90;;
10805;SDS011;5455;53.224;6.000;2022-08-30T08:23:42;1.77;;;0.50;;
10805;SDS011;5455;53.224;6.000;2022-08-30T08:26:09;2.73;;;0.97;;
10805;SDS011;5455;53.224;6.000;2022-08-30T08:28:36;1.60;;;0.80;;
10805;SDS011;5455;53.224;6.000;2022-08-30T08:31:03;1.80;;;0.83;;
10805;SDS011;5455;53.224;6.000;2022-08-30T08:33:40;1.20;;;0.87;;
10805;SDS011;5455;53.224;6.000;2022-08-30T08:36:09;1.23;;;0.93;;
10805;SDS011;5455;53.224;6.000;2022-08-30T08:38:36;2.47;;;0.93;;
10805;SDS011;5455;53.224;6.000;2022-08-30T08:44:19;2.70;;;1.10;;
10805;SDS011;5455;53.224;6.000;2022-08-30T08:49:42;1.83;;;0.90;;
10805;SDS011;5455;53.224;6.000;2022-08-30T08:52:12;1.63;;;0.90;;
10805;SDS011;5455;53.224;6.000;2022-08-30T08:55:08;1.80;;;0.70;;
10805;SDS011;5455;53.224;6.000;2022-08-30T08:57:37;1.07;;;0.70;;
10805;SDS011;5455;53.224;6.000;2022-08-30T09:00:06;0.90;;;0.73;;
10805;SDS011;5455;53.224;6.000;2022-08-30T09:02:43;1.67;;;1.03;;
10805;SDS011;5455;53.224;6.000;2022-08-30T09:05:13;1.10;;;0.63;;
10805;SDS011;5455;53.224;6.000;2022-08-30T09:07:47;1.83;;;0.70;;
10805;SDS011;5455;53.224;6.000;2022-08-30T09:10:19;1.67;;;0.90;;
10805;SDS011;5455;53.224;6.000;2022-08-30T09:13:06;0.80;;;0.70;;
10805;SDS011;5455;53.224;6.000;2022-08-30T09:15:39;1.43;;;0.73;;
10805;SDS011;5455;53.224;6.000;2022-08-30T09:18:06;1.17;;;0.63;;
10805;SDS011;5455;53.224;6.000;2022-08-30T09:20:48;1.77;;;0.80;;
10805;SDS011;5455;53.224;6.000;2022-08-30T09:23:20;3.60;;;0.67;;
10805;SDS011;5455;53.224;6.000;2022-08-30T09:28:25;1.93;;;0.70;;
10805;SDS011;5455;53.224;6.000;2022-08-30T09:30:59;1.73;;;0.80;;
10805;SDS011;5455;53.224;6.000;2022-08-30T09:33:29;2.53;;;0.80;;
10805;SDS011;5455;53.224;6.000;2022-08-30T09:36:08;1.40;;;0.70;;
10805;SDS011;5455;53.224;6.000;2022-08-30T09:38:38;1.60;;;0.60;;
10805;SDS011;5455;53.224;6.000;2022-08-30T09:46:57;2.67;;;0.70;;
10805;SDS011;5455;53.224;6.000;2022-08-30T09:49:30;2.30;;;0.80;;
10805;SDS011;5455;53.224;6.000;2022-08-30T09:54:34;0.80;;;0.60;;
10805;SDS011;5455;53.224;6.000;2022-08-30T10:00:18;2.10;;;0.90;;
10805;SDS011;5455;53.224;6.000;2022-08-30T10:03:51;1.37;;;0.83;;
10805;SDS011;5455;53.224;6.000;2022-08-30T10:06:12;1.27;;;0.70;;
10805;SDS011;5455;53.224;6.000;2022-08-30T10:16:44;1.23;;;0.73;;
10805;SDS011;5455;53.224;6.000;2022-08-30T10:22:15;1.80;;;0.73;;
10805;SDS011;5455;53.224;6.000;2022-08-30T10:25:11;2.00;;;0.50;;
10805;SDS011;5455;53.224;6.000;2022-08-30T10:28:00;1.33;;;0.60;;
10805;SDS011;5455;53.224;6.000;2022-08-30T10:30:47;1.60;;;0.70;;
10805;SDS011;5455;53.224;6.000;2022-08-30T10:33:29;2.63;;;0.80;;
10805;SDS011;5455;53.224;6.000;2022-08-30T10:36:05;1.07;;;0.60;;
10805;SDS011;5455;53.224;6.000;2022-08-30T10:38:37;1.70;;;0.70;;
10805;SDS011;5455;53.224;6.000;2022-08-30T10:44:10;1.30;;;0.60;;
10805;SDS011;5455;53.224;6.000;2022-08-30T10:46:58;1.13;;;0.60;;
10805;SDS011;5455;53.224;6.000;2022-08-30T10:49:29;1.33;;;0.70;;
10805;SDS011;5455;53.224;6.000;2022-08-30T10:54:54;1.00;;;0.60;;
10805;SDS011;5455;53.224;6.000;2022-08-30T10:57:26;3.47;;;0.80;;
10805;SDS011;5455;53.224;6.000;2022-08-30T10:59:58;3.60;;;0.70;;
10805;SDS011;5455;53.224;6.000;2022-08-30T11:02:45;0.87;;;0.63;;
10805;SDS011;5455;53.224;6.000;2022-08-30T11:14:24;3.20;;;0.53;;
10805;SDS011;5455;53.224;6.000;2022-08-30T11:16:52;2.93;;;0.70;;
10805;SDS011;5455;53.224;6.000;2022-08-30T11:19:38;2.30;;;0.50;;
10805;SDS011;5455;53.224;6.000;2022-08-30T11:22:09;1.60;;;0.60;;
10805;SDS011;5455;53.224;6.000;2022-08-30T11:27:43;2.37;;;0.40;;
10805;SDS011;5455;53.224;6.000;2022-08-30T11:32:57;1.17;;;0.73;;
10805;SDS011;5455;53.224;6.000;2022-08-30T11:36:01;3.03;;;0.80;;
10805;SDS011;5455;53.224;6.000;2022-08-30T11:48:46;0.60;;;0.50;;
10805;SDS011;5455;53.224;6.000;2022-08-30T12:00:24;3.03;;;0.70;;
10805;SDS011;5455;53.224;6.000;2022-08-30T12:03:07;0.83;;;0.57;;
10805;SDS011;5455;53.224;6.000;2022-08-30T12:05:57;0.67;;;0.60;;
10805;SDS011;5455;53.224;6.000;2022-08-30T12:10:58;0.93;;;0.60;;
10805;SDS011;5455;53.224;6.000;2022-08-30T12:16:01;1.57;;;0.60;;
10805;SDS011;5455;53.224;6.000;2022-08-30T12:18:32;4.13;;;0.67;;
10805;SDS011;5455;53.224;6.000;2022-08-30T12:21:12;1.47;;;0.50;;
10805;SDS011;5455;53.224;6.000;2022-08-30T12:28:56;0.67;;;0.50;;
10805;SDS011;5455;53.224;6.000;2022-08-30T12:31:44;3.30;;;0.80;;
10805;SDS011;5455;53.224;6.000;2022-08-30T12:34:20;1.80;;;0.70;;
10805;SDS011;5455;53.224;6.000;2022-08-30T12:39:31;1.50;;;0.50;;
10805;SDS011;5455;53.224;6.000;2022-08-30T12:44:58;2.10;;;0.90;;
10805;SDS011;5455;53.224;6.000;2022-08-30T12:47:32;0.63;;;0.40;;
10805;SDS011;5455;53.224;6.000;2022-08-30T12:50:09;1.17;;;0.67;;
10805;SDS011;5455;53.224;6.000;2022-08-30T12:52:43;2.33;;;0.73;;
10805;SDS011;5455;53.224;6.000;2022-08-30T12:55:17;1.13;;;0.50;;
10805;SDS011;5455;53.224;6.000;2022-08-30T12:57:56;1.40;;;0.73;;
10805;SDS011;5455;53.224;6.000;2022-08-30T13:03:28;2.70;;;0.60;;
10805;SDS011;5455;53.224;6.000;2022-08-30T13:06:00;1.63;;;0.70;;
10805;SDS011;5455;53.224;6.000;2022-08-30T13:08:30;1.43;;;0.67;;
10805;SDS011;5455;53.224;6.000;2022-08-30T13:11:06;0.70;;;0.50;;
10805;SDS011;5455;53.224;6.000;2022-08-30T13:16:11;1.17;;;0.50;;
10805;SDS011;5455;53.224;6.000;2022-08-30T13:18:47;2.13;;;0.50;;
10805;SDS011;5455;53.224;6.000;2022-08-30T13:23:53;0.80;;;0.50;;
10805;SDS011;5455;53.224;6.000;2022-08-30T13:26:34;1.07;;;0.50;;
10805;SDS011;5455;53.224;6.000;2022-08-30T13:29:06;1.37;;;0.70;;
10805;SDS011;5455;53.224;6.000;2022-08-30T13:31:39;1.00;;;0.70;;
10805;SDS011;5455;53.224;6.000;2022-08-30T13:34:06;2.13;;;0.87;;
10805;SDS011;5455;53.224;6.000;2022-08-30T13:36:34;1.07;;;0.53;;
10805;SDS011;5455;53.224;6.000;2022-08-30T13:39:10;2.57;;;0.87;;
10805;SDS011;5455;53.224;6.000;2022-08-30T13:41:38;0.70;;;0.40;;
10805;SDS011;5455;53.224;6.000;2022-08-30T13:44:05;1.20;;;0.70;;
10805;SDS011;5455;53.224;6.000;2022-08-30T13:46:38;0.90;;;0.60;;
10805;SDS011;5455;53.224;6.000;2022-08-30T13:49:11;1.67;;;0.90;;
10805;SDS011;5455;53.224;6.000;2022-08-30T13:52:05;0.80;;;0.50;;
10805;SDS011;5455;53.224;6.000;2022-08-30T13:54:50;1.83;;;0.70;;
10805;SDS011;5455;53.224;6.000;2022-08-30T13:57:19;0.80;;;0.53;;
10805;SDS011;5455;53.224;6.000;2022-08-30T14:00:10;1.17;;;0.70;;
10805;SDS011;5455;53.224;6.000;2022-08-30T14:02:43;2.07;;;0.73;;
10805;SDS011;5455;53.224;6.000;2022-08-30T14:05:21;2.27;;;0.60;;
10805;SDS011;5455;53.224;6.000;2022-08-30T14:08:11;1.80;;;1.00;;
10805;SDS011;5455;53.224;6.000;2022-08-30T14:11:00;2.90;;;0.73;;
10805;SDS011;5455;53.224;6.000;2022-08-30T14:13:28;2.83;;;0.70;;
10805;SDS011;5455;53.224;6.000;2022-08-30T14:15:56;1.80;;;0.60;;
10805;SDS011;5455;53.224;6.000;2022-08-30T14:18:45;3.03;;;0.70;;
10805;SDS011;5455;53.224;6.000;2022-08-30T14:21:12;2.63;;;0.77;;
10805;SDS011;5455;53.224;6.000;2022-08-30T14:23:39;1.43;;;0.80;;
10805;SDS011;5455;53.224;6.000;2022-08-30T14:26:09;2.80;;;1.00;;
10805;SDS011;5455;53.224;6.000;2022-08-30T14:28:42;1.80;;;0.80;;
10805;SDS011;5455;53.224;6.000;2022-08-30T14:31:10;4.17;;;1.00;;
10805;SDS011;5455;53.224;6.000;2022-08-30T14:33:38;0.87;;;0.50;;
10805;SDS011;5455;53.224;6.000;2022-08-30T14:36:05;3.10;;;0.83;;
10805;SDS011;5455;53.224;6.000;2022-08-30T14:38:41;2.07;;;0.80;;
10805;SDS011;5455;53.224;6.000;2022-08-30T14:41:08;0.93;;;0.60;;
10805;SDS011;5455;53.224;6.000;2022-08-30T14:43:36;1.27;;;0.60;;
10805;SDS011;5455;53.224;6.000;2022-08-30T14:46:06;0.60;;;0.50;;
10805;SDS011;5455;53.224;6.000;2022-08-30T14:48:35;2.37;;;0.63;;
10805;SDS011;5455;53.224;6.000;2022-08-30T14:51:14;2.30;;;0.80;;
10805;SDS011;5455;53.224;6.000;2022-08-30T14:53:43;2.93;;;0.90;;
10805;SDS011;5455;53.224;6.000;2022-08-30T14:56:12;1.53;;;0.97;;
10805;SDS011;5455;53.224;6.000;2022-08-30T14:58:41;3.50;;;0.60;;
10805;SDS011;5455;53.224;6.000;2022-08-30T15:01:09;2.60;;;0.80;;
10805;SDS011;5455;53.224;6.000;2022-08-30T15:03:39;3.20;;;0.60;;
10805;SDS011;5455;53.224;6.000;2022-08-30T15:06:07;2.17;;;0.70;;
10805;SDS011;5455;53.224;6.000;2022-08-30T15:08:36;2.13;;;0.47;;
10805;SDS011;5455;53.224;6.000;2022-08-30T15:11:08;2.23;;;0.67;;
10805;SDS011;5455;53.224;6.000;2022-08-30T15:13:37;2.47;;;0.83;;
10805;SDS011;5455;53.224;6.000;2022-08-30T15:16:08;2.27;;;0.83;;
10805;SDS011;5455;53.224;6.000;2022-08-30T15:18:37;2.20;;;0.70;;
10805;SDS011;5455;53.224;6.000;2022-08-30T15:21:07;2.40;;;0.70;;
10805;SDS011;5455;53.224;6.000;2022-08-30T15:23:35;1.50;;;0.67;;
10805;SDS011;5455;53.224;6.000;2022-08-30T15:26:05;1.60;;;0.57;;
10805;SDS011;5455;53.224;6.000;2022-08-30T15:28:34;1.40;;;0.60;;
10805;SDS011;5455;53.224;6.000;2022-08-30T15:31:01;3.53;;;0.97;;
10805;SDS011;5455;53.224;6.000;2022-08-30T15:33:35;1.20;;;0.67;;
10805;SDS011;5455;53.224;6.000;2022-08-30T15:36:03;1.70;;;0.80;;
10805;SDS011;5455;53.224;6.000;2022-08-30T15:38:31;1.30;;;0.80;;
10805;SDS011;5455;53.224;6.000;2022-08-30T15:41:00;2.00;;;0.60;;
10805;SDS011;5455;53.224;6.000;2022-08-30T15:43:29;1.73;;;0.60;;
10805;SDS011;5455;53.224;6.000;2022-08-30T15:48:48;2.30;;;0.97;;
10805;SDS011;5455;53.224;6.000;2022-08-30T15:51:17;1.03;;;0.60;;
10805;SDS011;5455;53.224;6.000;2022-08-30T15:53:44;3.73;;;0.90;;
10805;SDS011;5455;53.224;6.000;2022-08-30T15:56:12;1.27;;;0.70;;
10805;SDS011;5455;53.224;6.000;2022-08-30T15:58:39;1.60;;;0.93;;
10805;SDS011;5455;53.224;6.000;2022-08-30T16:01:07;1.90;;;0.53;;
10805;SDS011;5455;53.224;6.000;2022-08-30T16:03:35;1.23;;;0.70;;
10805;SDS011;5455;53.224;6.000;2022-08-30T16:06:03;1.87;;;0.50;;
10805;SDS011;5455;53.224;6.000;2022-08-30T16:08:30;1.00;;;0.47;;
10805;SDS011;5455;53.224;6.000;2022-08-30T16:10:57;1.53;;;0.63;;
10805;SDS011;5455;53.224;6.000;2022-08-30T16:13:24;6.13;;;0.77;;
10805;SDS011;5455;53.224;6.000;2022-08-30T16:15:50;2.03;;;0.50;;
10805;SDS011;5455;53.224;6.000;2022-08-30T16:18:17;1.50;;;0.53;;
10805;SDS011;5455;53.224;6.000;2022-08-30T16:20:44;1.13;;;0.60;;
10805;SDS011;5455;53.224;6.000;2022-08-30T16:23:11;1.77;;;0.53;;
10805;SDS011;5455;53.224;6.000;2022-08-30T16:25:38;2.27;;;0.60;;
10805;SDS011;5455;53.224;6.000;2022-08-30T16:28:06;3.33;;;0.70;;
10805;SDS011;5455;53.224;6.000;2022-08-30T16:30:35;1.47;;;0.70;;
10805;SDS011;5455;53.224;6.000;2022-08-30T16:33:02;1.13;;;0.70;;
10805;SDS011;5455;53.224;6.000;2022-08-30T16:35:31;1.20;;;0.60;;
10805;SDS011;5455;53.224;6.000;2022-08-30T16:37:58;0.70;;;0.60;;
10805;SDS011;5455;53.224;6.000;2022-08-30T16:40:25;1.53;;;0.60;;
10805;SDS011;5455;53.224;6.000;2022-08-30T16:42:53;4.50;;;0.90;;
10805;SDS011;5455;53.224;6.000;2022-08-30T16:45:20;7.70;;;0.90;;
10805;SDS011;5455;53.224;6.000;2022-08-30T16:47:49;2.93;;;0.70;;
10805;SDS011;5455;53.224;6.000;2022-08-30T16:50:17;1.67;;;0.80;;
10805;SDS011;5455;53.224;6.000;2022-08-30T16:52:47;2.67;;;0.90;;
10805;SDS011;5455;53.224;6.000;2022-08-30T16:55:14;2.73;;;0.90;;
10805;SDS011;5455;53.224;6.000;2022-08-30T16:57:42;2.90;;;0.93;;
10805;SDS011;5455;53.224;6.000;2022-08-30T17:00:09;1.77;;;1.00;;
10805;SDS011;5455;53.224;6.000;2022-08-30T17:02:39;7.40;;;4.23;;